Main page
METAR-TAF:

METAR-TAF

Airports :

Castres–Mazamet Airport

Castres, France

latitude: 43-33-25N, longitude: 2-17-21E, elevation: 239 m

Current weather observation

The report was made 35 minutes ago, at 05:30 UTC
Wind 4 kt from the Northwest
Temperature 6°C
Humidity 93%
Pressure 1029 hPa
Visibility: 6000 m
Few clouds at a height of 1300 ft

METAR: LFCK 240530Z AUTO 31004KT 6000 FEW013 06/05 Q1029 TEMPO 3000 BR BKN008

Time: 08:05 (06:05 UTC)

Forecast

The report was made 1 hour and 5 minutes ago, at 05:00 UTC
Forecast valid from 24 at 06 UTC to 24 at 15 UTC
Wind 3 kt from variable directions
Visibility: 6000 m
Temporary
from 24 at 06 UTC to 24 at 08 UTC
Visibility: 3000 m
Broken clouds at a height of 800 ft
mist
Becoming
from 24 at 09 UTC to 24 at 11 UTC
Wind 5 kt from the West/Northwest
Visibility 10 km or more

TAF: LFCK 240500Z 2406/2415 VRB03KT 6000 NSC TEMPO 2406/2408 3000 BR BKN008 BECMG 2409/2411 29005KT 9999

Weather observations and forecasts of more than 4000 airports (METAR and TAF reports).

The available stations are represented by yellow and red dots on the map.

Hover mouse over dot to see the name of the station.

Then click to see weather observations and forecasts.

To change the map : click on the green buttons with a black cross to zoom in, on the green button with a dash to zoom out, or on the green arrows for adjacent maps.


METAR-TAF: